Time;durP1;ratioP1;P1;durP2;ratioP2;P2;SDS_P1;SDS_P2;PMS_P1;PMS_P2;Temp;Humidity;BMP_temperature;BMP_pressure;BME280_temperature;BME280_humidity;BME280_pressure;Samples;Min_cycle;Max_cycle;Signal;HPM_P1;HPM_P2
2023/06/08 00:04:47;;;;;;;4.20;3.80;;;;;;;;;;10410938;28;20393;-60
2023/06/08 00:09:48;;;;;;;5.93;4.20;;;;;;;;;;10410809;28;20447;-63
2023/06/08 00:14:49;;;;;;;6.30;5.00;;;;;;;;;;10411111;28;20033;-63
2023/06/08 00:19:52;;;;;;;9.35;5.22;;;;;;;;;;10411073;28;20488;-63
2023/06/08 00:24:53;;;;;;;5.22;4.72;;;;;;;;;;10401444;28;20029;-64
2023/06/08 00:29:53;;;;;;;6.45;4.88;;;;;;;;;;10410369;28;20026;-64
2023/06/08 00:34:54;;;;;;;5.85;5.25;;;;;;;;;;10402908;28;20040;-64
2023/06/08 00:39:55;;;;;;;8.48;5.18;;;;;;;;;;10409891;28;20053;-62
2023/06/08 00:44:55;;;;;;;7.30;4.65;;;;;;;;;;10402358;28;20568;-63
2023/06/08 00:49:57;;;;;;;9.63;4.53;;;;;;;;;;10409385;28;20531;-63
2023/06/08 00:55:00;;;;;;;6.68;4.68;;;;;;;;;;10406578;28;20423;-59
2023/06/08 01:00:07;;;;;;;4.82;4.32;;;;;;;;;;10408752;28;20044;-62
2023/06/08 01:05:07;;;;;;;5.97;4.32;;;;;;;;;;10409051;28;20033;-61
2023/06/08 01:10:13;;;;;;;4.88;3.80;;;;;;;;;;10407868;28;20025;-62
2023/06/08 01:15:26;;;;;;;8.05;4.30;;;;;;;;;;10408503;28;20048;-60
2023/06/08 01:20:42;;;;;;;5.22;3.50;;;;;;;;;;10407123;28;20432;-63
2023/06/08 01:25:43;;;;;;;6.10;3.90;;;;;;;;;;10396525;28;20474;-61
2023/06/08 01:30:46;;;;;;;5.40;4.10;;;;;;;;;;10406212;28;20549;-63
2023/06/08 01:36:23;;;;;;;4.32;3.63;;;;;;;;;;10407155;28;20567;-63
2023/06/08 01:41:31;;;;;;;3.78;3.47;;;;;;;;;;10406539;28;20137;-62
2023/06/08 01:46:32;;;;;;;6.95;3.85;;;;;;;;;;10398657;28;20496;-62
2023/06/08 01:51:33;;;;;;;5.35;4.10;;;;;;;;;;10399583;28;20041;-64
2023/06/08 01:56:35;;;;;;;4.10;3.72;;;;;;;;;;10406390;28;20056;-62
2023/06/08 02:01:36;;;;;;;4.60;3.70;;;;;;;;;;10406472;28;20029;-63
2023/06/08 02:06:36;;;;;;;4.15;3.63;;;;;;;;;;10406387;28;20030;-63
2023/06/08 02:11:37;;;;;;;3.55;3.25;;;;;;;;;;10406451;28;20052;-62
2023/06/08 02:16:38;;;;;;;5.00;3.67;;;;;;;;;;10406358;28;20041;-62
2023/06/08 02:21:39;;;;;;;4.47;3.90;;;;;;;;;;10405942;28;20029;-61
2023/06/08 02:26:39;;;;;;;5.78;3.70;;;;;;;;;;10406337;28;20029;-62
2023/06/08 02:31:40;;;;;;;4.10;3.67;;;;;;;;;;10404908;28;20554;-63
2023/06/08 02:36:40;;;;;;;4.40;3.60;;;;;;;;;;10405496;28;20489;-62
2023/06/08 02:41:41;;;;;;;6.45;3.17;;;;;;;;;;10404598;28;20451;-62
2023/06/08 02:46:42;;;;;;;4.88;3.30;;;;;;;;;;10405871;28;20084;-63
2023/06/08 02:51:42;;;;;;;3.45;3.10;;;;;;;;;;10396596;28;20423;-64
2023/06/08 02:56:43;;;;;;;4.20;3.30;;;;;;;;;;10396991;28;20106;-63
2023/06/08 03:01:52;;;;;;;3.58;2.85;;;;;;;;;;10405482;28;20029;-64
2023/06/08 03:06:53;;;;;;;4.90;2.88;;;;;;;;;;10404459;28;20044;-64
2023/06/08 03:11:55;;;;;;;13.23;3.33;;;;;;;;;;10405444;28;20056;-63
2023/06/08 03:17:03;;;;;;;5.03;3.00;;;;;;;;;;10409517;28;20082;-60
2023/06/08 03:22:06;;;;;;;4.67;3.27;;;;;;;;;;10412661;28;20484;-61
2023/06/08 03:27:07;;;;;;;3.25;2.92;;;;;;;;;;10412392;28;20041;-63
2023/06/08 03:32:08;;;;;;;7.22;2.90;;;;;;;;;;10412643;28;20030;-63
2023/06/08 03:37:08;;;;;;;3.13;2.85;;;;;;;;;;10412667;28;20037;-63
2023/06/08 03:42:09;;;;;;;5.15;2.88;;;;;;;;;;10411874;28;20050;-62
2023/06/08 03:47:12;;;;;;;3.58;2.67;;;;;;;;;;10411084;28;20060;-61
2023/06/08 03:52:12;;;;;;;6.85;3.15;;;;;;;;;;10411512;28;20477;-64
2023/06/08 03:57:13;;;;;;;3.17;2.65;;;;;;;;;;10403939;28;20041;-63
2023/06/08 04:02:14;;;;;;;2.92;2.67;;;;;;;;;;10411100;28;20067;-62
2023/06/08 04:07:16;;;;;;;4.38;2.92;;;;;;;;;;10403314;28;20132;-63
2023/06/08 04:12:17;;;;;;;3.63;2.78;;;;;;;;;;10410815;28;20060;-62
2023/06/08 04:17:17;;;;;;;3.97;2.95;;;;;;;;;;10410692;28;20036;-63
2023/06/08 04:22:18;;;;;;;3.15;2.60;;;;;;;;;;10410264;28;20469;-62
2023/06/08 04:27:19;;;;;;;3.45;2.60;;;;;;;;;;10409056;28;20512;-63
2023/06/08 04:32:20;;;;;;;9.45;2.90;;;;;;;;;;10409891;28;20132;-64
2023/06/08 04:37:21;;;;;;;3.35;2.80;;;;;;;;;;10410181;28;20482;-64
2023/06/08 04:42:23;;;;;;;2.72;2.42;;;;;;;;;;10409260;28;20061;-63
2023/06/08 04:47:24;;;;;;;3.22;2.60;;;;;;;;;;10409392;28;20033;-63
2023/06/08 04:52:26;;;;;;;3.10;2.80;;;;;;;;;;10409327;28;20026;-61
2023/06/08 04:57:26;;;;;;;6.55;2.67;;;;;;;;;;10408556;28;20084;-63
2023/06/08 05:02:27;;;;;;;4.07;2.83;;;;;;;;;;10410561;28;20034;-64
2023/06/08 05:07:27;;;;;;;3.88;2.45;;;;;;;;;;10400009;28;20037;-63
2023/06/08 05:12:28;;;;;;;3.55;2.90;;;;;;;;;;10407806;28;20473;-64
2023/06/08 05:17:29;;;;;;;13.15;2.75;;;;;;;;;;10400673;28;20025;-63
2023/06/08 05:22:29;;;;;;;4.78;2.60;;;;;;;;;;10408030;28;20022;-63
2023/06/08 05:27:30;;;;;;;3.85;2.53;;;;;;;;;;10407688;28;20033;-63
2023/06/08 05:32:30;;;;;;;2.80;2.47;;;;;;;;;;10406504;28;20071;-64
2023/06/08 05:37:31;;;;;;;5.55;2.33;;;;;;;;;;10407471;28;20029;-64
2023/06/08 05:42:31;;;;;;;4.30;2.25;;;;;;;;;;10416308;28;20053;-63
2023/06/08 05:47:32;;;;;;;2.80;2.35;;;;;;;;;;10407624;28;20034;-62
2023/06/08 05:52:33;;;;;;;3.63;2.47;;;;;;;;;;10407298;28;20037;-58
2023/06/08 05:57:33;;;;;;;3.97;2.20;;;;;;;;;;10408986;28;20056;-60
2023/06/08 06:02:34;;;;;;;13.15;2.50;;;;;;;;;;10415678;28;20025;-60
2023/06/08 06:07:35;;;;;;;6.80;2.20;;;;;;;;;;10410846;28;20041;-58
2023/06/08 06:12:36;;;;;;;3.45;2.15;;;;;;;;;;10404768;28;20043;-62
2023/06/08 06:17:38;;;;;;;5.28;2.50;;;;;;;;;;10390577;28;20037;-61
2023/06/08 06:22:38;;;;;;;6.35;2.40;;;;;;;;;;10405277;28;20022;-64
2023/06/08 06:27:39;;;;;;;5.70;2.50;;;;;;;;;;10406538;28;20473;-60
2023/06/08 06:32:39;;;;;;;3.50;2.17;;;;;;;;;;10405678;28;20477;-60
2023/06/08 06:37:40;;;;;;;3.33;2.03;;;;;;;;;;10406399;28;20457;-62
2023/06/08 06:42:40;;;;;;;4.15;2.22;;;;;;;;;;10409762;28;20469;-64
2023/06/08 06:47:42;;;;;;;3.70;2.13;;;;;;;;;;10406461;28;20547;-65
2023/06/08 06:52:42;;;;;;;2.63;2.10;;;;;;;;;;10412427;28;20388;-63
2023/06/08 06:57:44;;;;;;;3.55;2.03;;;;;;;;;;10414031;28;20041;-64
2023/06/08 07:02:44;;;;;;;3.53;2.03;;;;;;;;;;10413719;28;20134;-64
2023/06/08 07:07:45;;;;;;;3.38;2.20;;;;;;;;;;10413658;28;20584;-65
2023/06/08 07:12:46;;;;;;;3.42;2.22;;;;;;;;;;10413392;28;20499;-65
2023/06/08 07:17:46;;;;;;;3.65;1.98;;;;;;;;;;10413242;28;20080;-64
2023/06/08 07:22:47;;;;;;;4.28;1.98;;;;;;;;;;10413138;28;20029;-64
2023/06/08 07:27:47;;;;;;;3.95;2.00;;;;;;;;;;10412519;28;20026;-64
2023/06/08 07:32:49;;;;;;;3.90;2.05;;;;;;;;;;10412498;28;20060;-63
2023/06/08 07:37:49;;;;;;;3.08;1.98;;;;;;;;;;10412794;28;20485;-64
2023/06/08 07:42:51;;;;;;;4.50;2.35;;;;;;;;;;10412422;28;20042;-65
2023/06/08 07:47:52;;;;;;;2.40;2.10;;;;;;;;;;10412599;28;20032;-64
2023/06/08 07:52:52;;;;;;;2.20;2.00;;;;;;;;;;10400127;28;20028;-63
2023/06/08 07:57:53;;;;;;;2.45;2.22;;;;;;;;;;10412349;28;20041;-63
2023/06/08 08:02:53;;;;;;;2.88;1.90;;;;;;;;;;10411666;28;20044;-64
2023/06/08 08:07:54;;;;;;;2.22;1.90;;;;;;;;;;10411615;28;20022;-64
2023/06/08 08:12:55;;;;;;;2.03;1.75;;;;;;;;;;10411333;28;20176;-64
2023/06/08 08:17:55;;;;;;;2.47;2.10;;;;;;;;;;10411688;28;20017;-62
2023/06/08 08:22:56;;;;;;;2.75;1.80;;;;;;;;;;10411519;28;20022;-63
2023/06/08 08:27:57;;;;;;;4.97;2.15;;;;;;;;;;10411520;28;20275;-65
2023/06/08 08:32:57;;;;;;;3.17;2.13;;;;;;;;;;10410218;28;20017;-62
2023/06/08 08:37:58;;;;;;;2.83;2.08;;;;;;;;;;10410444;28;20022;-63
2023/06/08 08:43:09;;;;;;;1.80;1.70;;;;;;;;;;10409994;28;20509;-63
2023/06/08 08:48:14;;;;;;;3.03;2.10;;;;;;;;;;10410109;28;20165;-62
2023/06/08 08:53:16;;;;;;;2.10;1.90;;;;;;;;;;10409012;28;20022;-64
2023/06/08 08:58:18;;;;;;;2.05;1.95;;;;;;;;;;10408333;28;20120;-64
2023/06/08 09:03:18;;;;;;;2.35;1.90;;;;;;;;;;10408548;28;20037;-64
2023/06/08 09:08:19;;;;;;;2.00;1.77;;;;;;;;;;10409452;28;20469;-64
2023/06/08 09:13:20;;;;;;;1.80;1.70;;;;;;;;;;10408593;28;20036;-64
2023/06/08 09:18:21;;;;;;;3.60;1.90;;;;;;;;;;10409672;28;20026;-58
2023/06/08 09:23:24;;;;;;;2.22;2.03;;;;;;;;;;10409029;28;20025;-61
2023/06/08 09:28:25;;;;;;;1.77;1.67;;;;;;;;;;10408571;28;20048;-64
2023/06/08 09:33:29;;;;;;;2.20;2.00;;;;;;;;;;10408429;28;20091;-63
2023/06/08 09:38:33;;;;;;;3.72;1.70;;;;;;;;;;10408120;28;20032;-63
2023/06/08 09:43:34;;;;;;;2.28;1.85;;;;;;;;;;10407538;28;20138;-64
2023/06/08 09:48:35;;;;;;;2.33;2.13;;;;;;;;;;10407906;28;20057;-64
2023/06/08 09:53:37;;;;;;;8.95;7.88;;;;;;;;;;10407444;28;20060;-67
2023/06/08 09:58:39;;;;;;;11.43;9.07;;;;;;;;;;10406391;28;20118;-63
2023/06/08 10:03:47;;;;;;;11.75;10.15;;;;;;;;;;10405688;28;20032;-64
2023/06/08 10:08:53;;;;;;;11.48;9.43;;;;;;;;;;10406172;28;20022;-60
2023/06/08 10:13:55;;;;;;;15.88;9.75;;;;;;;;;;10407102;28;20029;-64
2023/06/08 10:18:58;;;;;;;13.10;8.93;;;;;;;;;;10405957;28;20025;-60
2023/06/08 10:23:59;;;;;;;10.70;8.02;;;;;;;;;;10407502;28;20028;-61
2023/06/08 10:29:06;;;;;;;13.63;7.72;;;;;;;;;;10414204;28;20037;-61
2023/06/08 10:34:19;;;;;;;13.82;9.43;;;;;;;;;;10415084;28;20131;-61
2023/06/08 10:39:21;;;;;;;9.85;7.97;;;;;;;;;;10415544;28;20046;-61
2023/06/08 10:44:27;;;;;;;11.02;9.20;;;;;;;;;;10415067;28;20489;-62
2023/06/08 10:49:40;;;;;;;14.18;8.15;;;;;;;;;;10402504;28;20112;-64
2023/06/08 10:54:57;;;;;;;11.88;8.30;;;;;;;;;;10402821;28;20037;-63
2023/06/08 10:59:58;;;;;;;13.27;7.68;;;;;;;;;;10414203;28;20022;-64
2023/06/08 11:04:58;;;;;;;11.32;7.22;;;;;;;;;;10414020;28;20033;-64
2023/06/08 11:10:02;;;;;;;9.25;6.32;;;;;;;;;;10413986;28;20026;-64
2023/06/08 11:15:04;;;;;;;4.63;4.07;;;;;;;;;;10413820;28;20037;-65
2023/06/08 11:20:05;;;;;;;3.90;3.50;;;;;;;;;;10401049;28;20026;-63
2023/06/08 11:25:12;;;;;;;5.20;3.30;;;;;;;;;;10413795;28;20032;-63
2023/06/08 11:30:20;;;;;;;4.40;4.00;;;;;;;;;;10413046;28;20033;-63
2023/06/08 11:35:21;;;;;;;;;;;;;;;;;;10412794;28;20033;-64
2023/06/08 11:40:22;;;;;;;19.08;6.40;;;;;;;;;;10412490;28;20430;-63
2023/06/08 11:45:23;;;;;;;6.38;4.50;;;;;;;;;;10412363;28;20029;-65
2023/06/08 11:50:24;;;;;;;8.70;4.60;;;;;;;;;;10411677;28;20374;-63
2023/06/08 11:55:25;;;;;;;7.07;3.75;;;;;;;;;;10411644;28;20033;-61
2023/06/08 12:00:28;;;;;;;4.57;4.07;;;;;;;;;;10411169;28;20025;-65
2023/06/08 12:05:33;;;;;;;18.80;5.07;;;;;;;;;;10404543;28;20021;-63
2023/06/08 12:10:47;;;;;;;10.13;6.00;;;;;;;;;;10411441;28;20485;-62
2023/06/08 12:15:50;;;;;;;16.85;5.63;;;;;;;;;;10410783;28;20033;-60
2023/06/08 12:20:53;;;;;;;5.30;4.03;;;;;;;;;;10411066;28;20029;-63
2023/06/08 12:25:56;;;;;;;6.95;3.92;;;;;;;;;;10411045;28;20417;-59
2023/06/08 12:31:00;;;;;;;4.40;3.30;;;;;;;;;;10410750;28;20056;-60
2023/06/08 12:36:00;;;;;;;5.13;3.40;;;;;;;;;;10390727;28;20049;-59
2023/06/08 12:41:01;;;;;;;4.38;3.40;;;;;;;;;;10410289;28;20049;-59
2023/06/08 12:46:06;;;;;;;5.35;3.15;;;;;;;;;;10410879;28;20022;-60
2023/06/08 12:51:10;;;;;;;7.68;2.85;;;;;;;;;;10409110;28;20034;-60
2023/06/08 12:56:10;;;;;;;4.53;2.53;;;;;;;;;;10409970;28;20030;-59
2023/06/08 13:01:11;;;;;;;4.40;3.00;;;;;;;;;;10409559;28;20030;-64
2023/06/08 13:06:13;;;;;;;4.43;2.42;;;;;;;;;;10409432;28;20066;-62
2023/06/08 13:11:15;;;;;;;2.72;2.28;;;;;;;;;;10409491;28;20041;-64
2023/06/08 13:16:16;;;;;;;3.35;2.95;;;;;;;;;;10409154;28;20041;-64
2023/06/08 13:21:17;;;;;;;4.07;2.42;;;;;;;;;;10408820;28;20049;-64
2023/06/08 13:26:24;;;;;;;2.53;2.30;;;;;;;;;;10408146;28;20048;-64
2023/06/08 13:31:25;;;;;;;4.72;2.40;;;;;;;;;;10434442;23;20059;-58
2023/06/08 13:36:27;;;;;;;2.55;2.30;;;;;;;;;;10441652;28;20565;-59
2023/06/08 13:41:33;;;;;;;2.92;2.50;;;;;;;;;;10441281;28;20036;-57
2023/06/08 13:46:35;;;;;;;2.65;2.45;;;;;;;;;;10448775;28;20052;-58
2023/06/08 13:51:36;;;;;;;3.45;2.60;;;;;;;;;;10447712;28;20068;-58
2023/06/08 13:56:46;;;;;;;3.80;2.80;;;;;;;;;;10448301;28;20049;-59
2023/06/08 14:01:46;;;;;;;5.65;2.40;;;;;;;;;;10447662;28;20028;-59
2023/06/08 14:06:48;;;;;;;3.65;2.65;;;;;;;;;;10448471;28;20033;-59
2023/06/08 14:11:51;;;;;;;4.38;2.72;;;;;;;;;;10447529;28;20061;-59
2023/06/08 14:16:52;;;;;;;4.90;2.75;;;;;;;;;;10447702;28;20033;-59
2023/06/08 14:21:54;;;;;;;3.08;2.60;;;;;;;;;;10448477;28;20405;-54
2023/06/08 14:26:55;;;;;;;5.35;2.80;;;;;;;;;;10435932;28;20028;-54
2023/06/08 14:31:56;;;;;;;2.75;2.50;;;;;;;;;;10447929;28;20535;-56
2023/06/08 14:36:56;;;;;;;2.88;2.67;;;;;;;;;;10447420;28;20036;-54
2023/06/08 14:41:57;;;;;;;3.20;2.83;;;;;;;;;;10439859;28;20017;-56
2023/06/08 14:47:00;;;;;;;3.28;2.78;;;;;;;;;;10447001;28;20369;-56
2023/06/08 14:52:00;;;;;;;2.88;2.60;;;;;;;;;;10446992;28;20018;-55
2023/06/08 14:57:01;;;;;;;2.50;2.30;;;;;;;;;;10447346;28;20396;-55
2023/06/08 15:02:02;;;;;;;3.08;2.78;;;;;;;;;;10446666;28;20416;-55
2023/06/08 15:07:03;;;;;;;3.13;2.88;;;;;;;;;;10446616;28;20060;-53
2023/06/08 15:12:05;;;;;;;3.25;2.88;;;;;;;;;;10450415;28;20441;-56
2023/06/08 15:17:05;;;;;;;3.78;2.95;;;;;;;;;;10453641;28;20108;-56
2023/06/08 15:22:06;;;;;;;3.20;2.70;;;;;;;;;;10454759;28;20028;-54
2023/06/08 15:27:09;;;;;;;2.88;2.55;;;;;;;;;;10454355;28;20040;-55
2023/06/08 15:32:12;;;;;;;3.35;2.60;;;;;;;;;;10453284;28;20037;-57
2023/06/08 15:37:26;;;;;;;5.07;3.00;;;;;;;;;;10453748;28;20075;-55
2023/06/08 15:42:28;;;;;;;3.88;2.90;;;;;;;;;;10433528;28;20029;-56
2023/06/08 15:47:28;;;;;;;3.15;2.85;;;;;;;;;;10435881;28;20384;-54
2023/06/08 15:52:29;;;;;;;3.05;2.75;;;;;;;;;;10451844;28;20032;-56
2023/06/08 15:57:33;;;;;;;3.97;3.00;;;;;;;;;;10453057;28;20029;-54
2023/06/08 16:02:34;;;;;;;3.55;2.75;;;;;;;;;;10452883;28;20025;-55
2023/06/08 16:07:34;;;;;;;3.72;3.30;;;;;;;;;;10452687;28;20025;-54
2023/06/08 16:12:42;;;;;;;3.35;3.03;;;;;;;;;;10452149;28;20029;-54
2023/06/08 16:17:43;;;;;;;3.83;2.47;;;;;;;;;;10451848;28;20040;-54
2023/06/08 16:22:43;;;;;;;5.20;3.13;;;;;;;;;;10450236;28;20068;-54
2023/06/08 16:27:44;;;;;;;3.70;3.10;;;;;;;;;;10451691;28;20079;-54
2023/06/08 16:32:45;;;;;;;3.38;2.97;;;;;;;;;;10450790;28;20033;-57
2023/06/08 16:37:46;;;;;;;3.60;3.10;;;;;;;;;;10450956;28;20025;-56
2023/06/08 16:42:46;;;;;;;3.50;3.20;;;;;;;;;;10444085;28;20056;-55
2023/06/08 16:47:50;;;;;;;3.30;3.00;;;;;;;;;;10450965;28;20037;-54
2023/06/08 16:52:50;;;;;;;2.90;2.67;;;;;;;;;;10451117;28;20039;-56
2023/06/08 16:57:51;;;;;;;6.70;3.42;;;;;;;;;;10439995;28;20040;-55
2023/06/08 17:02:51;;;;;;;3.47;3.17;;;;;;;;;;10447519;28;20048;-56
2023/06/08 17:07:52;;;;;;;5.60;2.88;;;;;;;;;;10450009;28;20362;-54
2023/06/08 17:12:53;;;;;;;4.07;2.80;;;;;;;;;;10449999;28;20033;-56
2023/06/08 17:18:01;;;;;;;3.05;2.75;;;;;;;;;;10449467;28;20476;-56
2023/06/08 17:23:02;;;;;;;2.72;2.53;;;;;;;;;;10449320;28;20032;-56
2023/06/08 17:28:03;;;;;;;3.15;2.85;;;;;;;;;;10448640;28;20404;-56
2023/06/08 17:33:03;;;;;;;3.15;2.85;;;;;;;;;;10448483;28;20049;-56
2023/06/08 17:38:04;;;;;;;3.15;2.85;;;;;;;;;;10448969;28;20082;-56
2023/06/08 17:43:04;;;;;;;3.83;3.30;;;;;;;;;;10437809;28;20049;-54
2023/06/08 17:48:05;;;;;;;6.47;2.90;;;;;;;;;;10431015;28;20507;-57
2023/06/08 17:53:07;;;;;;;4.55;2.60;;;;;;;;;;10448548;28;20033;-57
2023/06/08 17:58:08;;;;;;;2.83;2.63;;;;;;;;;;10447291;28;20029;-57
2023/06/08 18:03:09;;;;;;;3.22;2.95;;;;;;;;;;10447688;28;20022;-57
2023/06/08 18:08:10;;;;;;;4.18;2.80;;;;;;;;;;10443787;28;20090;-57
2023/06/08 18:13:12;;;;;;;4.07;2.95;;;;;;;;;;10426830;28;20033;-57
2023/06/08 18:18:13;;;;;;;3.70;3.28;;;;;;;;;;10431469;28;20040;-57
2023/06/08 18:23:14;;;;;;;3.90;2.97;;;;;;;;;;10445286;28;20527;-57
2023/06/08 18:28:14;;;;;;;10.05;3.13;;;;;;;;;;10445630;28;20029;-57
2023/06/08 18:33:15;;;;;;;3.50;2.65;;;;;;;;;;10445270;28;20045;-57
2023/06/08 18:38:15;;;;;;;5.88;2.90;;;;;;;;;;10435636;28;20033;-57
2023/06/08 18:43:16;;;;;;;6.57;3.15;;;;;;;;;;10440028;28;20048;-57
2023/06/08 18:48:17;;;;;;;8.90;3.10;;;;;;;;;;10447490;28;20507;-57
2023/06/08 18:53:20;;;;;;;5.95;3.25;;;;;;;;;;10451939;28;20095;-57
2023/06/08 18:58:21;;;;;;;4.00;2.85;;;;;;;;;;10448061;28;20052;-57
2023/06/08 19:03:22;;;;;;;5.00;3.42;;;;;;;;;;10451576;28;20036;-57
2023/06/08 19:08:22;;;;;;;3.35;2.85;;;;;;;;;;10448716;28;20033;-57
2023/06/08 19:13:23;;;;;;;4.13;2.72;;;;;;;;;;10450050;28;20377;-57
2023/06/08 19:18:24;;;;;;;3.80;3.03;;;;;;;;;;10452448;28;20025;-57
2023/06/08 19:23:24;;;;;;;3.42;3.13;;;;;;;;;;10452883;28;20052;-57
2023/06/08 19:28:25;;;;;;;3.53;2.55;;;;;;;;;;10449906;28;20029;-57
2023/06/08 19:33:25;;;;;;;2.97;2.50;;;;;;;;;;10449941;28;20048;-57
2023/06/08 19:38:26;;;;;;;2.88;2.67;;;;;;;;;;10450844;28;20029;-55
2023/06/08 19:43:27;;;;;;;8.63;3.30;;;;;;;;;;10449538;28;20033;-55
2023/06/08 19:48:28;;;;;;;3.95;3.33;;;;;;;;;;10427049;28;20055;-54
2023/06/08 19:53:29;;;;;;;3.22;2.92;;;;;;;;;;10444680;28;20059;-57
2023/06/08 19:58:29;;;;;;;4.15;3.10;;;;;;;;;;10450111;28;20031;-55
2023/06/08 20:03:30;;;;;;;4.72;3.65;;;;;;;;;;10451625;28;20029;-55
2023/06/08 20:08:31;;;;;;;4.68;2.90;;;;;;;;;;10441605;28;20060;-55
2023/06/08 20:13:31;;;;;;;4.25;3.53;;;;;;;;;;10448725;28;20462;-53
2023/06/08 20:18:32;;;;;;;5.63;3.22;;;;;;;;;;10447953;28;20036;-55
2023/06/08 20:23:33;;;;;;;10.30;3.65;;;;;;;;;;10451334;28;20472;-57
2023/06/08 20:28:33;;;;;;;5.25;3.35;;;;;;;;;;10451413;28;20029;-57
2023/06/08 20:33:34;;;;;;;5.88;3.22;;;;;;;;;;10407009;28;20436;-58
2023/06/08 20:38:35;;;;;;;4.40;3.55;;;;;;;;;;10409119;28;20017;-58
2023/06/08 20:43:35;;;;;;;5.57;3.53;;;;;;;;;;10407975;28;20025;-57
2023/06/08 20:48:36;;;;;;;3.70;3.08;;;;;;;;;;10398516;28;20051;-58
2023/06/08 20:53:37;;;;;;;6.75;3.47;;;;;;;;;;10407098;28;20025;-57
2023/06/08 20:58:37;;;;;;;9.48;3.63;;;;;;;;;;10400746;28;20478;-57
2023/06/08 21:03:38;;;;;;;4.63;3.50;;;;;;;;;;10406514;28;20025;-58
2023/06/08 21:08:39;;;;;;;4.85;3.53;;;;;;;;;;10398030;28;20022;-58
2023/06/08 21:13:39;;;;;;;4.10;3.28;;;;;;;;;;10405438;28;20041;-58
2023/06/08 21:18:40;;;;;;;5.38;3.25;;;;;;;;;;10395759;28;20029;-57
2023/06/08 21:23:41;;;;;;;5.10;3.33;;;;;;;;;;10402906;28;20041;-58
2023/06/08 21:28:41;;;;;;;5.20;3.30;;;;;;;;;;10403670;28;20021;-57
2023/06/08 21:33:45;;;;;;;4.60;3.22;;;;;;;;;;10430688;28;20373;-60
2023/06/08 21:38:45;;;;;;;6.78;3.47;;;;;;;;;;10444668;28;20075;-60
2023/06/08 21:43:46;;;;;;;3.88;3.25;;;;;;;;;;10446806;28;20558;-59
2023/06/08 21:48:46;;;;;;;5.75;3.08;;;;;;;;;;10447379;28;20466;-59
2023/06/08 21:53:47;;;;;;;6.47;3.35;;;;;;;;;;10429860;28;20543;-58
2023/06/08 21:58:49;;;;;;;3.83;3.20;;;;;;;;;;10432202;28;20044;-57
2023/06/08 22:03:49;;;;;;;6.70;3.55;;;;;;;;;;10435776;28;20057;-56
2023/06/08 22:08:50;;;;;;;3.65;3.22;;;;;;;;;;10434284;28;20476;-57
2023/06/08 22:13:54;;;;;;;4.60;3.38;;;;;;;;;;10445353;28;20033;-59
2023/06/08 22:18:55;;;;;;;4.88;3.08;;;;;;;;;;10433194;28;20108;-58
2023/06/08 22:23:56;;;;;;;5.70;3.63;;;;;;;;;;10445437;28;20021;-59
2023/06/08 22:28:56;;;;;;;5.32;3.13;;;;;;;;;;10446083;28;20063;-58
2023/06/08 22:33:57;;;;;;;6.85;3.75;;;;;;;;;;10445330;28;20100;-58
2023/06/08 22:38:58;;;;;;;4.53;3.13;;;;;;;;;;10444593;28;20029;-58
2023/06/08 22:43:58;;;;;;;9.05;3.72;;;;;;;;;;10443387;28;20032;-57
2023/06/08 22:49:01;;;;;;;4.07;3.67;;;;;;;;;;10446106;28;20427;-58
2023/06/08 22:54:02;;;;;;;3.10;2.80;;;;;;;;;;10444647;28;20036;-58
2023/06/08 22:59:03;;;;;;;2.90;2.60;;;;;;;;;;10445306;28;20028;-58
2023/06/08 23:04:04;;;;;;;4.85;3.25;;;;;;;;;;10446131;28;20045;-57
2023/06/08 23:09:05;;;;;;;4.85;3.30;;;;;;;;;;10443427;28;20021;-58
2023/06/08 23:14:05;;;;;;;3.97;3.20;;;;;;;;;;10445171;28;20021;-57
2023/06/08 23:19:06;;;;;;;4.43;2.90;;;;;;;;;;10444535;28;20021;-57
2023/06/08 23:24:07;;;;;;;3.47;3.17;;;;;;;;;;10443480;28;20022;-57
2023/06/08 23:29:08;;;;;;;6.38;3.45;;;;;;;;;;10444380;28;20025;-57
2023/06/08 23:34:09;;;;;;;3.95;3.25;;;;;;;;;;10449624;28;20106;-57
2023/06/08 23:39:10;;;;;;;7.43;3.22;;;;;;;;;;10443691;28;20021;-58
2023/06/08 23:44:10;;;;;;;5.75;3.35;;;;;;;;;;10450699;28;20032;-57
2023/06/08 23:49:11;;;;;;;3.20;2.90;;;;;;;;;;10450833;28;20079;-57
2023/06/08 23:54:12;;;;;;;3.40;3.10;;;;;;;;;;10449592;28;20381;-57
2023/06/08 23:59:12;;;;;;;4.00;3.30;;;;;;;;;;10450672;28;20119;-57
